Time,TemperatureF,DewpointF,PressureIn,WindDirection,WindDirectionDegrees,WindSpeedMPH,WindSpeedGustMPH,Humidity,HourlyPrecipIn,Conditions,Clouds,dailyrainin,SoftwareType,DateUTC
2013-01-10 00:10:00,33.1,22.0,25.75,SW,215,5.0,8.0,63,0.00,,,0.00,weatherlink.com 1.10,2013-01-10 07:10:00,
2013-01-10 00:25:00,33.7,21.0,25.75,West,262,2.0,11.0,61,0.00,,,0.00,weatherlink.com 1.10,2013-01-10 07:25:00,
2013-01-10 00:40:00,35.4,22.0,25.74,SSW,207,9.0,15.0,59,0.00,,,0.00,weatherlink.com 1.10,2013-01-10 07:40:00,
2013-01-10 00:55:00,35.9,22.0,25.74,SSW,207,5.0,12.0,58,0.00,,,0.00,weatherlink.com 1.10,2013-01-10 07:55:00,
2013-01-10 01:10:00,35.4,23.0,25.74,SW,214,7.0,13.0,60,0.00,,,0.00,weatherlink.com 1.10,2013-01-10 08:10:00,
2013-01-10 01:25:00,35.5,23.0,25.73,SSW,209,15.0,18.0,61,0.00,,,0.00,weatherlink.com 1.10,2013-01-10 08:25:00,
2013-01-10 01:40:00,35.0,23.0,25.73,SSW,210,13.0,18.0,62,0.00,,,0.00,weatherlink.com 1.10,2013-01-10 08:40:00,
2013-01-10 01:55:00,34.7,23.0,25.72,SSW,207,18.0,19.0,63,0.00,,,0.00,weatherlink.com 1.10,2013-01-10 08:55:00,
2013-01-10 02:10:00,33.8,23.0,25.72,SW,218,10.0,22.0,64,0.00,,,0.00,weatherlink.com 1.10,2013-01-10 09:10:00,
2013-01-10 02:26:00,31.0,23.0,25.72,West,277,13.0,20.0,72,0.00,,,0.00,weatherlink.com 1.10,2013-01-10 09:26:00,
2013-01-10 02:41:00,29.8,23.0,25.71,SW,229,13.0,19.0,76,0.00,,,0.00,weatherlink.com 1.10,2013-01-10 09:41:00,
2013-01-10 02:56:00,31.1,23.0,25.71,SW,222,13.0,19.0,73,0.00,,,0.00,weatherlink.com 1.10,2013-01-10 09:56:00,
2013-01-10 03:11:00,30.8,23.0,25.70,South,186,14.0,22.0,72,0.00,,,0.00,weatherlink.com 1.10,2013-01-10 10:11:00,
2013-01-10 03:26:00,31.9,23.0,25.69,SSE,160,15.0,18.0,69,0.00,,,0.00,weatherlink.com 1.10,2013-01-10 10:26:00,
2013-01-10 03:41:00,31.1,22.0,25.69,SSW,200,7.0,15.0,70,0.00,,,0.00,weatherlink.com 1.10,2013-01-10 10:41:00,
2013-01-10 03:56:00,30.1,22.0,25.68,SW,226,10.0,16.0,71,0.00,,,0.00,weatherlink.com 1.10,2013-01-10 10:56:00,
2013-01-10 04:11:00,27.7,21.0,25.67,SSW,203,7.0,12.0,76,0.00,,,0.00,weatherlink.com 1.10,2013-01-10 11:11:00,
2013-01-10 04:26:00,28.7,21.0,25.67,SSE,160,13.0,19.0,74,0.00,,,0.00,weatherlink.com 1.10,2013-01-10 11:26:00,
2013-01-10 04:41:00,30.7,22.0,25.65,SSW,200,16.0,23.0,70,0.00,,,0.00,weatherlink.com 1.10,2013-01-10 11:41:00,
2013-01-10 04:56:00,30.5,22.0,25.65,SW,225,15.0,20.0,70,0.00,,,0.00,weatherlink.com 1.10,2013-01-10 11:56:00,
2013-01-10 05:11:00,30.1,21.0,25.65,SW,215,8.0,16.0,70,0.00,,,0.00,weatherlink.com 1.10,2013-01-10 12:11:00,
2013-01-10 05:26:00,29.9,21.0,25.64,SSE,153,8.0,14.0,69,0.00,,,0.00,weatherlink.com 1.10,2013-01-10 12:26:00,
2013-01-10 05:41:00,28.9,20.0,25.64,SSW,192,16.0,17.0,70,0.00,,,0.00,weatherlink.com 1.10,2013-01-10 12:41:00,
2013-01-10 05:56:00,29.0,20.0,25.62,SW,218,12.0,22.0,70,0.00,,,0.00,weatherlink.com 1.10,2013-01-10 12:56:00,
2013-01-10 06:11:00,28.5,20.0,25.62,SW,225,17.0,20.0,70,0.00,,,0.00,weatherlink.com 1.10,2013-01-10 13:11:00,
2013-01-10 06:26:00,28.9,20.0,25.61,South,175,15.0,21.0,69,0.00,,,0.00,weatherlink.com 1.10,2013-01-10 13:26:00,
2013-01-10 06:41:00,28.4,20.0,25.61,SW,215,19.0,22.0,70,0.00,,,0.00,weatherlink.com 1.10,2013-01-10 13:41:00,
2013-01-10 06:56:00,28.1,20.0,25.61,SSE,161,13.0,26.0,71,0.00,,,0.00,weatherlink.com 1.10,2013-01-10 13:56:00,
2013-01-10 07:11:00,28.9,20.0,25.60,WSW,243,19.0,23.0,70,0.00,,,0.00,weatherlink.com 1.10,2013-01-10 14:11:00,
2013-01-10 07:26:00,28.8,20.0,25.59,South,172,13.0,25.0,71,0.00,,,0.00,weatherlink.com 1.10,2013-01-10 14:26:00,
2013-01-10 07:41:00,29.6,21.0,25.59,SSW,200,13.0,21.0,71,0.00,,,0.00,weatherlink.com 1.10,2013-01-10 14:41:00,
2013-01-10 07:56:00,31.0,23.0,25.58,SW,215,17.0,21.0,71,0.00,,,0.00,weatherlink.com 1.10,2013-01-10 14:56:00,
2013-01-10 08:11:00,32.4,24.0,25.58,SW,218,14.0,14.0,71,0.00,,,0.00,weatherlink.com 1.10,2013-01-10 15:11:00,
2013-01-10 08:26:00,33.2,24.0,25.57,SSW,210,9.0,16.0,70,0.00,,,0.00,weatherlink.com 1.10,2013-01-10 15:26:00,
2013-01-10 08:41:00,34.6,25.0,25.57,SSW,193,11.0,18.0,68,0.00,,,0.00,weatherlink.com 1.10,2013-01-10 15:41:00,
2013-01-10 08:56:00,34.9,25.0,25.56,SSW,207,14.0,21.0,68,0.00,,,0.00,weatherlink.com 1.10,2013-01-10 15:56:00,
2013-01-10 09:12:00,36.6,27.0,25.55,SSW,194,16.0,26.0,67,0.00,,,0.00,weatherlink.com 1.10,2013-01-10 16:12:00,
2013-01-10 09:27:00,39.0,28.0,25.55,South,175,16.0,23.0,66,0.00,,,0.00,weatherlink.com 1.10,2013-01-10 16:27:00,
2013-01-10 09:42:00,41.6,32.0,25.52,SW,218,17.0,27.0,69,0.00,,,0.00,weatherlink.com 1.10,2013-01-10 16:42:00,
2013-01-10 09:57:00,43.0,35.0,25.52,WSW,256,16.0,24.0,72,0.00,,,0.00,weatherlink.com 1.10,2013-01-10 16:57:00,
2013-01-10 10:12:00,43.9,35.0,25.52,SSW,207,11.0,23.0,72,0.00,,,0.00,weatherlink.com 1.10,2013-01-10 17:12:00,
2013-01-10 10:27:00,45.7,37.0,25.51,South,180,18.0,23.0,73,0.00,,,0.00,weatherlink.com 1.10,2013-01-10 17:27:00,
2013-01-10 10:42:00,46.4,37.0,25.50,SW,232,14.0,27.0,71,0.00,,,0.00,weatherlink.com 1.10,2013-01-10 17:42:00,
2013-01-10 10:57:00,47.8,39.0,25.49,SW,218,21.0,30.0,71,0.00,,,0.00,weatherlink.com 1.10,2013-01-10 17:57:00,
2013-01-10 11:12:00,48.0,39.0,25.47,SW,214,15.0,26.0,70,0.00,,,0.00,weatherlink.com 1.10,2013-01-10 18:12:00,
2013-01-10 11:27:00,48.5,39.0,25.46,WSW,243,16.0,23.0,70,0.00,,,0.00,weatherlink.com 1.10,2013-01-10 18:27:00,
2013-01-10 11:42:00,49.7,40.0,25.45,SW,214,18.0,25.0,69,0.00,,,0.00,weatherlink.com 1.10,2013-01-10 18:42:00,
2013-01-10 11:57:00,50.6,41.0,25.44,SW,214,16.0,24.0,69,0.00,,,0.00,weatherlink.com 1.10,2013-01-10 18:57:00,
2013-01-10 12:12:00,51.8,41.0,25.43,SSW,193,17.0,28.0,67,0.00,,,0.00,weatherlink.com 1.10,2013-01-10 19:12:00,
2013-01-10 12:27:00,51.6,41.0,25.42,SW,218,13.0,26.0,68,0.00,,,0.00,weatherlink.com 1.10,2013-01-10 19:27:00,
2013-01-10 12:42:00,51.4,41.0,25.42,North,349,8.0,22.0,67,0.00,,,0.00,weatherlink.com 1.10,2013-01-10 19:42:00,
2013-01-10 12:57:00,51.8,41.0,25.42,SW,232,12.0,22.0,67,0.00,,,0.00,weatherlink.com 1.10,2013-01-10 19:57:00,
2013-01-10 13:12:00,52.1,41.0,25.42,West,274,9.0,12.0,67,0.00,,,0.00,weatherlink.com 1.10,2013-01-10 20:12:00,
2013-01-10 13:27:00,52.0,41.0,25.42,SW,227,15.0,17.0,67,0.00,,,0.00,weatherlink.com 1.10,2013-01-10 20:27:00,
2013-01-10 13:43:00,51.7,41.0,25.41,SW,232,9.0,15.0,67,0.00,,,0.00,weatherlink.com 1.10,2013-01-10 20:43:00,
2013-01-10 13:58:00,51.1,41.0,25.41,South,186,11.0,15.0,68,0.00,,,0.00,weatherlink.com 1.10,2013-01-10 20:58:00,
2013-01-10 14:13:00,50.3,40.0,25.40,SSW,201,10.0,14.0,68,0.00,,,0.00,weatherlink.com 1.10,2013-01-10 21:13:00,
2013-01-10 14:28:00,49.5,40.0,25.39,West,280,6.0,13.0,70,0.00,,,0.00,weatherlink.com 1.10,2013-01-10 21:28:00,
2013-01-10 14:43:00,49.0,40.0,25.38,South,187,7.0,14.0,71,0.00,,,0.00,weatherlink.com 1.10,2013-01-10 21:43:00,
2013-01-10 14:58:00,48.6,40.0,25.38,SSW,207,9.0,18.0,71,0.00,,,0.00,weatherlink.com 1.10,2013-01-10 21:58:00,
2013-01-10 15:13:00,48.0,40.0,25.38,WSW,255,6.0,16.0,73,0.00,,,0.00,weatherlink.com 1.10,2013-01-10 22:13:00,
2013-01-10 15:28:00,45.8,38.0,25.38,SW,226,10.0,13.0,74,0.00,,,0.00,weatherlink.com 1.10,2013-01-10 22:28:00,
2013-01-10 15:43:00,44.4,37.0,25.38,SW,232,7.0,12.0,76,0.00,,,0.00,weatherlink.com 1.10,2013-01-10 22:43:00,
2013-01-10 15:58:00,43.1,37.0,25.38,SSW,195,5.0,12.0,78,0.00,,,0.00,weatherlink.com 1.10,2013-01-10 22:58:00,
2013-01-10 16:13:00,42.3,37.0,25.38,SW,218,6.0,8.0,80,0.00,,,0.00,weatherlink.com 1.10,2013-01-10 23:13:00,
2013-01-10 16:28:00,41.6,36.0,25.38,South,177,4.0,8.0,81,0.00,,,0.00,weatherlink.com 1.10,2013-01-10 23:28:00,
2013-01-10 16:43:00,41.0,36.0,25.37,SSW,193,2.0,5.0,82,0.00,,,0.00,weatherlink.com 1.10,2013-01-10 23:43:00,
2013-01-10 16:58:00,39.1,34.0,25.37,South,175,3.0,4.0,83,0.00,,,0.00,weatherlink.com 1.10,2013-01-10 23:58:00,
2013-01-10 17:13:00,37.6,34.0,25.36,SW,216,7.0,8.0,86,0.00,,,0.00,weatherlink.com 1.10,2013-01-11 00:13:00,
2013-01-10 17:28:00,37.2,34.0,25.36,SSE,156,6.0,10.0,89,0.00,,,0.00,weatherlink.com 1.10,2013-01-11 00:28:00,
2013-01-10 17:43:00,35.7,33.0,25.36,SSW,201,7.0,8.0,91,0.00,,,0.00,weatherlink.com 1.10,2013-01-11 00:43:00,
2013-01-10 17:58:00,35.0,33.0,25.35,SW,215,5.0,10.0,93,0.00,,,0.00,weatherlink.com 1.10,2013-01-11 00:58:00,
2013-01-10 18:13:00,34.9,33.0,25.35,SW,229,11.0,13.0,94,0.00,,,0.00,weatherlink.com 1.10,2013-01-11 01:13:00,
2013-01-10 18:28:00,35.1,34.0,25.35,SW,222,9.0,15.0,95,0.00,,,0.00,weatherlink.com 1.10,2013-01-11 01:28:00,
2013-01-10 18:43:00,34.8,34.0,25.35,SW,226,7.0,16.0,95,0.00,,,0.00,weatherlink.com 1.10,2013-01-11 01:43:00,
2013-01-10 18:58:00,34.3,33.0,25.34,SW,226,10.0,13.0,95,0.00,,,0.00,weatherlink.com 1.10,2013-01-11 01:58:00,
2013-01-10 19:13:00,34.1,33.0,25.34,South,175,7.0,12.0,96,0.00,,,0.00,weatherlink.com 1.10,2013-01-11 02:13:00,
2013-01-10 19:28:00,33.8,33.0,25.33,SW,225,6.0,14.0,96,0.00,,,0.00,weatherlink.com 1.10,2013-01-11 02:28:00,
2013-01-10 19:43:00,33.7,33.0,25.34,SW,231,6.0,8.0,96,0.00,,,0.00,weatherlink.com 1.10,2013-01-11 02:43:00,
2013-01-10 19:58:00,33.5,33.0,25.32,SW,235,2.0,8.0,96,0.00,,,0.00,weatherlink.com 1.10,2013-01-11 02:58:00,
2013-01-10 20:13:00,33.4,32.0,25.32,South,188,3.0,8.0,96,0.00,,,0.00,weatherlink.com 1.10,2013-01-11 03:13:00,
2013-01-10 20:28:00,33.1,32.0,25.32,SW,222,7.0,8.0,96,0.00,,,0.00,weatherlink.com 1.10,2013-01-11 03:28:00,
2013-01-10 20:43:00,32.8,32.0,25.32,SW,222,9.0,13.0,96,0.00,,,0.00,weatherlink.com 1.10,2013-01-11 03:43:00,
2013-01-10 20:58:00,32.5,32.0,25.31,West,267,3.0,9.0,96,0.00,,,0.00,weatherlink.com 1.10,2013-01-11 03:58:00,
2013-01-10 21:13:00,32.3,31.0,25.31,SW,229,6.0,10.0,96,0.00,,,0.00,weatherlink.com 1.10,2013-01-11 04:13:00,
2013-01-10 21:28:00,32.1,31.0,25.31,SW,215,5.0,9.0,97,0.00,,,0.00,weatherlink.com 1.10,2013-01-11 04:28:00,
2013-01-10 21:43:00,31.9,31.0,25.30,SSW,210,5.0,8.0,97,0.00,,,0.00,weatherlink.com 1.10,2013-01-11 04:43:00,
2013-01-10 21:58:00,31.8,31.0,25.30,SSW,198,6.0,8.0,97,0.00,,,0.00,weatherlink.com 1.10,2013-01-11 04:58:00,
2013-01-10 22:13:00,31.7,31.0,25.30,South,179,5.0,9.0,97,0.00,,,0.00,weatherlink.com 1.10,2013-01-11 05:13:00,
2013-01-10 22:28:00,31.6,31.0,25.29,South,179,5.0,8.0,97,0.00,,,0.00,weatherlink.com 1.10,2013-01-11 05:28:00,
2013-01-10 22:43:00,31.3,31.0,25.29,South,179,9.0,12.0,97,0.00,,,0.00,weatherlink.com 1.10,2013-01-11 05:43:00,
2013-01-10 22:58:00,31.2,31.0,25.28,SSW,194,10.0,12.0,97,0.00,,,0.00,weatherlink.com 1.10,2013-01-11 05:58:00,
2013-01-10 23:13:00,31.0,30.0,25.28,SSW,194,7.0,10.0,97,0.00,,,0.00,weatherlink.com 1.10,2013-01-11 06:13:00,
2013-01-10 23:28:00,31.0,30.0,25.27,SW,225,7.0,7.0,97,0.00,,,0.00,weatherlink.com 1.10,2013-01-11 06:28:00,
2013-01-10 23:43:00,31.3,31.0,25.26,South,177,0.0,4.0,97,0.00,,,0.00,weatherlink.com 1.10,2013-01-11 06:43:00,
2013-01-10 23:58:00,31.2,31.0,25.27,East,91,0.0,0.0,97,0.00,,,0.00,weatherlink.com 1.10,2013-01-11 06:58:00,